createdAt,value
2023-05-10T00:01:07.339Z,0.40
2023-05-10T00:03:37.745Z,0.30
2023-05-10T00:06:05.629Z,0.40
2023-05-10T00:08:33.376Z,0.40
2023-05-10T00:11:01.239Z,0.27
2023-05-10T00:13:29.118Z,0.40
2023-05-10T00:15:56.887Z,0.23
2023-05-10T00:18:24.569Z,0.40
2023-05-10T00:20:52.437Z,0.40
2023-05-10T00:23:22.907Z,0.30
2023-05-10T00:25:50.551Z,0.40
2023-05-10T00:28:21.113Z,0.30
2023-05-10T00:30:48.834Z,0.40
2023-05-10T00:33:16.647Z,0.20
2023-05-10T00:35:45.720Z,0.40
2023-05-10T00:38:13.697Z,0.20
2023-05-10T00:40:41.780Z,0.40
2023-05-10T00:43:09.446Z,0.30
2023-05-10T00:45:37.885Z,0.30
2023-05-10T00:48:06.124Z,0.40
2023-05-10T00:50:34.652Z,0.40
2023-05-10T00:53:06.277Z,0.30
2023-05-10T00:55:34.016Z,0.40
2023-05-10T00:58:02.474Z,0.30
2023-05-10T01:00:30.610Z,0.40
2023-05-10T01:02:59.135Z,0.30
2023-05-10T01:05:28.384Z,0.20
2023-05-10T01:07:57.023Z,0.30
2023-05-10T01:10:24.997Z,0.30
2023-05-10T01:12:52.922Z,0.40
2023-05-10T01:15:21.751Z,0.40
2023-05-10T01:17:50.274Z,0.40
2023-05-10T01:20:21.248Z,0.33
2023-05-10T01:23:11.305Z,0.30
2023-05-10T01:25:54.660Z,0.30
2023-05-10T01:28:34.326Z,0.40
2023-05-10T01:31:29.039Z,0.30
2023-05-10T01:34:13.822Z,0.20
2023-05-10T01:36:48.539Z,0.40
2023-05-10T01:39:43.130Z,0.50
2023-05-10T01:42:12.485Z,0.30
2023-05-10T01:44:42.099Z,0.40
2023-05-10T01:47:36.836Z,0.40
2023-05-10T01:50:08.094Z,0.40
2023-05-10T01:52:42.083Z,0.50
2023-05-10T01:55:16.379Z,0.50
2023-05-10T01:57:47.479Z,0.50
2023-05-10T02:00:17.875Z,0.60
2023-05-10T02:02:48.350Z,0.60
2023-05-10T02:05:20.163Z,0.77
2023-05-10T02:07:48.802Z,0.50
2023-05-10T02:10:18.080Z,0.77
2023-05-10T02:12:49.609Z,0.67
2023-05-10T02:15:23.856Z,0.60
2023-05-10T02:17:56.905Z,0.53
2023-05-10T02:20:30.126Z,0.50
2023-05-10T02:22:58.944Z,0.60
2023-05-10T02:25:27.729Z,0.50
2023-05-10T02:27:57.719Z,0.60
2023-05-10T02:30:26.126Z,0.70
2023-05-10T02:32:58.398Z,0.70
2023-05-10T02:35:27.052Z,0.70
2023-05-10T02:37:55.362Z,0.60
2023-05-10T02:40:28.646Z,0.80
2023-05-10T02:43:00.256Z,0.90
2023-05-10T02:45:32.087Z,0.80
2023-05-10T02:48:00.638Z,0.80
2023-05-10T02:50:32.825Z,0.60
2023-05-10T02:53:11.649Z,0.80
2023-05-10T02:55:48.498Z,0.97
2023-05-10T02:58:16.324Z,1.50
2023-05-10T03:00:44.113Z,0.90
2023-05-10T03:03:11.929Z,0.90
2023-05-10T03:05:42.564Z,0.83
2023-05-10T03:08:10.716Z,1.07
2023-05-10T03:10:55.554Z,1.00
2023-05-10T03:13:51.356Z,1.10
2023-05-10T03:16:29.130Z,1.00
2023-05-10T03:19:12.691Z,0.77
2023-05-10T03:21:44.224Z,1.23
2023-05-10T03:24:16.264Z,0.97
2023-05-10T03:26:46.574Z,1.00
2023-05-10T03:29:15.531Z,0.90
2023-05-10T03:31:43.746Z,0.80
2023-05-10T03:34:11.590Z,0.97
2023-05-10T03:36:39.285Z,0.90
2023-05-10T03:39:06.972Z,1.40
2023-05-10T03:41:37.215Z,1.00
2023-05-10T03:44:07.749Z,1.40
2023-05-10T03:46:35.395Z,1.27
2023-05-10T03:49:03.583Z,1.20
2023-05-10T03:51:33.921Z,1.20
2023-05-10T03:54:01.650Z,1.30
2023-05-10T03:56:29.444Z,1.40
2023-05-10T03:58:57.113Z,1.30
2023-05-10T04:01:25.157Z,1.37
2023-05-10T04:04:19.669Z,1.27
2023-05-10T04:06:50.744Z,1.20
2023-05-10T04:09:18.445Z,1.10
2023-05-10T04:11:46.034Z,1.30
2023-05-10T04:14:13.701Z,1.47
2023-05-10T04:16:41.457Z,1.27
2023-05-10T04:19:09.170Z,1.40
2023-05-10T04:21:37.568Z,1.57
2023-05-10T04:24:05.450Z,1.63
2023-05-10T04:26:33.216Z,1.60
2023-05-10T04:29:00.925Z,1.50
2023-05-10T04:31:28.945Z,1.33
2023-05-10T04:33:56.954Z,1.40
2023-05-10T04:36:24.759Z,1.60
2023-05-10T04:38:56.072Z,1.60
2023-05-10T04:41:23.817Z,1.47
2023-05-10T04:43:51.604Z,1.90
2023-05-10T04:46:19.704Z,1.70
2023-05-10T04:48:52.180Z,1.57
2023-05-10T04:51:21.862Z,2.20
2023-05-10T04:54:01.462Z,2.40
2023-05-10T04:56:33.682Z,1.60
2023-05-10T04:59:01.548Z,1.73
2023-05-10T05:01:31.786Z,1.63
2023-05-10T05:04:00.342Z,1.47
2023-05-10T05:06:28.422Z,3.10
2023-05-10T05:08:56.117Z,1.80
2023-05-10T05:11:26.648Z,2.13
2023-05-10T05:13:54.505Z,2.30
2023-05-10T05:16:22.493Z,2.27
2023-05-10T05:18:50.206Z,1.97
2023-05-10T05:21:19.251Z,1.90
2023-05-10T05:23:51.972Z,2.30
2023-05-10T05:26:22.740Z,1.93
2023-05-10T05:28:53.587Z,2.40
2023-05-10T05:31:22.388Z,2.33
2023-05-10T05:33:50.114Z,2.00
2023-05-10T05:36:17.773Z,1.93
2023-05-10T05:38:47.760Z,2.17
2023-05-10T05:41:18.684Z,2.00
2023-05-10T05:43:46.398Z,2.17
2023-05-10T05:46:14.060Z,2.10
2023-05-10T05:48:44.751Z,2.20
2023-05-10T05:51:15.116Z,2.10
2023-05-10T05:53:42.865Z,2.50
2023-05-10T05:56:10.677Z,2.10
2023-05-10T05:58:38.626Z,2.40
2023-05-10T06:01:06.962Z,2.03
2023-05-10T06:03:34.768Z,2.27
2023-05-10T06:06:04.880Z,2.70
2023-05-10T06:08:33.074Z,2.30
2023-05-10T06:11:01.543Z,2.53
2023-05-10T06:13:33.709Z,2.20
2023-05-10T06:16:08.173Z,1.93
2023-05-10T06:18:35.884Z,2.73
2023-05-10T06:21:03.543Z,2.20
2023-05-10T06:23:32.747Z,1.70
2023-05-10T06:26:00.837Z,1.80
2023-05-10T06:28:28.818Z,2.03
2023-05-10T06:30:59.446Z,2.03
2023-05-10T06:33:27.335Z,1.75
2023-05-10T06:35:55.057Z,1.80
2023-05-10T06:38:22.975Z,2.13
2023-05-10T06:40:51.023Z,2.13
2023-05-10T06:43:21.832Z,1.80
2023-05-10T06:45:49.819Z,2.00
2023-05-10T06:48:17.521Z,1.80
2023-05-10T06:50:45.868Z,2.00
2023-05-10T06:53:14.186Z,1.70
2023-05-10T06:55:43.054Z,2.20
2023-05-10T06:58:10.750Z,1.90
2023-05-10T07:00:41.479Z,2.20
2023-05-10T07:03:09.441Z,2.57
2023-05-10T07:05:37.196Z,2.00
2023-05-10T07:08:04.943Z,1.90
2023-05-10T07:10:35.403Z,1.90
2023-05-10T07:13:03.146Z,2.00
2023-05-10T07:15:30.880Z,2.10
2023-05-10T07:17:58.789Z,2.10
2023-05-10T07:20:26.677Z,1.90
2023-05-10T07:23:05.781Z,2.37
2023-05-10T07:25:33.491Z,1.92
2023-05-10T07:28:10.665Z,1.85
2023-05-10T07:30:38.564Z,1.80
2023-05-10T07:33:06.326Z,1.53
2023-05-10T07:35:34.146Z,1.85
2023-05-10T07:38:05.435Z,1.65
2023-05-10T07:40:33.513Z,1.42
2023-05-10T07:43:02.758Z,1.70
2023-05-10T07:45:30.510Z,1.60
2023-05-10T07:47:58.393Z,1.10
2023-05-10T07:50:26.144Z,1.05
2023-05-10T07:52:53.915Z,1.65
2023-05-10T07:55:22.406Z,0.98
2023-05-10T07:57:50.374Z,1.27
2023-05-10T08:00:20.989Z,0.95
2023-05-10T08:02:56.332Z,1.20
2023-05-10T08:05:24.038Z,1.00
2023-05-10T08:07:52.819Z,1.00
2023-05-10T08:10:34.362Z,1.00
2023-05-10T08:13:05.665Z,1.10
2023-05-10T08:15:33.418Z,0.85
2023-05-10T08:18:01.109Z,0.80
2023-05-10T08:20:28.753Z,1.02
2023-05-10T08:22:56.750Z,1.00
2023-05-10T08:25:27.707Z,0.93
2023-05-10T08:27:55.609Z,0.88
2023-05-10T08:30:23.419Z,0.90
2023-05-10T08:32:51.031Z,0.88
2023-05-10T08:35:35.814Z,1.13
2023-05-10T08:38:03.547Z,1.10
2023-05-10T08:40:33.042Z,1.27
2023-05-10T08:43:07.947Z,0.60
2023-05-10T08:45:40.946Z,0.70
2023-05-10T08:48:09.854Z,0.68
2023-05-10T08:50:39.509Z,0.57
2023-05-10T08:53:15.985Z,0.40
2023-05-10T08:55:43.858Z,0.60
2023-05-10T08:58:31.835Z,0.40
2023-05-10T09:01:00.236Z,0.40
2023-05-10T09:03:27.887Z,0.40
2023-05-10T09:05:58.608Z,0.50
2023-05-10T09:08:27.097Z,0.50
2023-05-10T09:10:56.047Z,0.33
2023-05-10T09:13:25.575Z,0.40
2023-05-10T09:15:57.664Z,0.55
2023-05-10T09:18:28.441Z,0.43
2023-05-10T09:20:56.330Z,0.40
2023-05-10T09:23:24.719Z,0.30
2023-05-10T09:26:05.717Z,0.40
2023-05-10T09:28:50.799Z,0.43
2023-05-10T09:31:18.646Z,0.32
2023-05-10T09:33:50.852Z,0.40
2023-05-10T09:36:18.708Z,0.40
2023-05-10T09:38:52.739Z,0.40
2023-05-10T09:41:22.471Z,0.40
2023-05-10T09:43:50.866Z,0.43
2023-05-10T09:46:18.528Z,0.55
2023-05-10T09:48:48.590Z,0.45
2023-05-10T09:51:23.834Z,0.70
2023-05-10T09:54:11.096Z,0.50
2023-05-10T09:56:41.257Z,0.50
2023-05-10T09:59:12.047Z,0.70
2023-05-10T10:01:39.931Z,0.50
2023-05-10T10:04:09.514Z,0.50
2023-05-10T10:06:39.020Z,1.15
2023-05-10T10:09:12.391Z,0.50
2023-05-10T10:11:40.850Z,0.50
2023-05-10T10:14:08.474Z,0.47
2023-05-10T10:16:36.538Z,0.50
2023-05-10T10:19:04.434Z,0.60
2023-05-10T10:21:33.632Z,0.52
2023-05-10T10:24:01.309Z,0.50
2023-05-10T10:26:29.093Z,0.47
2023-05-10T10:29:24.552Z,0.40
2023-05-10T10:32:11.945Z,0.50
2023-05-10T10:34:40.785Z,0.50
2023-05-10T10:37:08.426Z,0.50
2023-05-10T10:39:37.825Z,0.50
2023-05-10T10:42:07.222Z,0.50
2023-05-10T10:44:38.892Z,0.60
2023-05-10T10:47:32.716Z,0.50
2023-05-10T10:50:41.916Z,0.47
2023-05-10T10:53:14.915Z,0.50
2023-05-10T10:55:49.874Z,0.60
2023-05-10T10:58:38.579Z,0.50
2023-05-10T11:01:15.087Z,0.30
2023-05-10T11:04:01.811Z,0.40
2023-05-10T11:06:36.925Z,0.30
2023-05-10T11:09:12.987Z,0.50
2023-05-10T11:11:56.095Z,0.40
2023-05-10T11:14:24.273Z,0.60
2023-05-10T11:16:52.716Z,0.70
2023-05-10T11:19:20.692Z,0.57
2023-05-10T11:22:06.513Z,0.50
2023-05-10T11:24:34.784Z,0.50
2023-05-10T11:27:02.404Z,0.32
2023-05-10T11:29:30.024Z,0.68
2023-05-10T11:31:59.623Z,0.60
2023-05-10T11:34:34.333Z,0.57
2023-05-10T11:37:02.524Z,0.65
2023-05-10T11:39:31.750Z,0.50
2023-05-10T11:41:59.427Z,0.40
2023-05-10T11:44:33.535Z,0.38
2023-05-10T11:47:02.468Z,0.40
2023-05-10T11:49:30.372Z,0.38
2023-05-10T11:52:09.067Z,0.30
2023-05-10T11:54:36.967Z,0.40
2023-05-10T11:57:05.285Z,0.40
2023-05-10T11:59:32.895Z,0.30
2023-05-10T12:02:00.950Z,0.50
2023-05-10T12:04:30.333Z,0.40
2023-05-10T12:06:58.484Z,0.30
2023-05-10T12:09:39.583Z,0.20
2023-05-10T12:12:11.665Z,0.30
2023-05-10T12:14:39.262Z,0.30
2023-05-10T12:17:06.885Z,0.32
2023-05-10T12:19:40.900Z,0.47
2023-05-10T12:22:08.511Z,0.45
2023-05-10T12:24:37.409Z,0.40
2023-05-10T12:27:09.819Z,0.52
2023-05-10T12:29:37.785Z,0.40
2023-05-10T12:32:05.464Z,0.50
2023-05-10T12:34:35.163Z,0.40
2023-05-10T12:37:05.855Z,0.60
2023-05-10T12:39:44.840Z,1.02
2023-05-10T12:42:12.745Z,0.40
2023-05-10T12:44:41.094Z,0.50
2023-05-10T12:47:08.758Z,0.50
2023-05-10T12:49:36.502Z,0.50
2023-05-10T12:52:04.211Z,0.40
2023-05-10T12:54:31.814Z,0.40
2023-05-10T12:56:59.525Z,0.60
2023-05-10T12:59:27.192Z,0.47
2023-05-10T13:01:54.874Z,0.50
2023-05-10T13:04:22.475Z,0.45
2023-05-10T13:06:50.345Z,0.40
2023-05-10T13:09:17.933Z,0.70
2023-05-10T13:11:46.220Z,0.57
2023-05-10T13:14:14.314Z,0.60
2023-05-10T13:16:42.052Z,0.60
2023-05-10T13:19:09.790Z,0.70
2023-05-10T13:21:37.562Z,0.80
2023-05-10T13:24:09.361Z,0.43
2023-05-10T13:26:37.433Z,0.70
2023-05-10T13:29:05.014Z,0.70
2023-05-10T13:31:32.646Z,0.68
2023-05-10T13:34:00.382Z,0.80
2023-05-10T13:36:27.979Z,0.57
2023-05-10T13:38:58.452Z,0.70
2023-05-10T13:41:26.218Z,0.68
2023-05-10T13:43:53.887Z,0.50
2023-05-10T13:46:21.567Z,0.68
2023-05-10T13:48:49.189Z,0.70
2023-05-10T13:51:16.793Z,0.90
2023-05-10T13:53:44.395Z,0.70
2023-05-10T13:56:12.021Z,0.70
2023-05-10T13:58:40.313Z,0.70
2023-05-10T14:01:08.042Z,0.70
2023-05-10T14:03:35.767Z,0.88
2023-05-10T14:06:03.538Z,0.82
2023-05-10T14:08:31.111Z,0.73
2023-05-10T14:10:58.791Z,0.85
2023-05-10T14:13:26.419Z,0.55
2023-05-10T14:15:54.734Z,0.70
2023-05-10T14:18:22.558Z,0.82
2023-05-10T14:20:50.403Z,0.70
2023-05-10T14:23:18.068Z,0.80
2023-05-10T14:25:48.696Z,0.93
2023-05-10T14:28:16.938Z,1.00
2023-05-10T14:30:44.678Z,0.90
2023-05-10T14:33:12.331Z,0.98
2023-05-10T14:35:46.183Z,1.08
2023-05-10T14:38:18.814Z,0.60
2023-05-10T14:40:46.477Z,0.85
2023-05-10T14:43:14.076Z,0.90
2023-05-10T14:45:42.357Z,0.75
2023-05-10T14:48:13.135Z,0.63
2023-05-10T14:50:40.860Z,0.80
2023-05-10T14:53:08.485Z,0.80
2023-05-10T14:55:36.140Z,1.15
2023-05-10T14:58:06.271Z,0.70
2023-05-10T15:00:34.022Z,1.02
2023-05-10T15:03:02.464Z,0.75
2023-05-10T15:05:30.587Z,0.73
2023-05-10T15:07:58.743Z,1.10
2023-05-10T15:10:26.349Z,0.82
2023-05-10T15:12:54.034Z,1.00
2023-05-10T15:15:21.905Z,0.80
2023-05-10T15:17:49.881Z,0.80
2023-05-10T15:20:17.719Z,0.60
2023-05-10T15:22:45.335Z,0.70
2023-05-10T15:25:16.777Z,0.95
2023-05-10T15:27:44.676Z,1.20
2023-05-10T15:30:13.016Z,0.75
2023-05-10T15:32:41.456Z,0.90
2023-05-10T15:35:12.334Z,0.75
2023-05-10T15:37:40.006Z,0.60
2023-05-10T15:40:07.976Z,0.68
2023-05-10T15:42:36.076Z,0.50
2023-05-10T15:45:04.956Z,0.70
2023-05-10T15:47:33.021Z,0.60
2023-05-10T15:50:03.201Z,0.77
2023-05-10T15:52:30.807Z,0.55
2023-05-10T15:54:58.440Z,0.50
2023-05-10T15:57:26.065Z,0.60
2023-05-10T15:59:56.401Z,0.60
2023-05-10T16:02:24.173Z,0.55
2023-05-10T16:04:51.831Z,0.80
2023-05-10T16:07:19.465Z,0.63
2023-05-10T16:09:47.096Z,0.60
2023-05-10T16:12:16.937Z,0.70
2023-05-10T16:14:44.594Z,0.70
2023-05-10T16:17:12.407Z,0.70
2023-05-10T16:19:40.908Z,0.80
2023-05-10T16:22:08.660Z,0.60
2023-05-10T16:24:36.632Z,0.57
2023-05-10T16:27:04.195Z,0.57
2023-05-10T16:29:32.115Z,0.85
2023-05-10T16:31:59.733Z,0.65
2023-05-10T16:34:27.413Z,0.60
2023-05-10T16:36:57.649Z,0.60
2023-05-10T16:39:30.973Z,0.60
2023-05-10T16:41:58.544Z,0.70
2023-05-10T16:44:26.216Z,0.82
2023-05-10T16:46:54.938Z,0.60
2023-05-10T16:49:24.465Z,0.70
2023-05-10T16:51:53.730Z,0.65
2023-05-10T16:54:22.019Z,0.73
2023-05-10T16:56:49.717Z,0.75
2023-05-10T16:59:17.494Z,1.00
2023-05-10T17:01:46.086Z,0.75
2023-05-10T17:04:14.375Z,0.85
2023-05-10T17:06:42.069Z,0.98
2023-05-10T17:09:11.260Z,1.05
2023-05-10T17:11:38.882Z,0.75
2023-05-10T17:14:06.505Z,0.77
2023-05-10T17:16:34.246Z,0.70
2023-05-10T17:19:07.412Z,0.50
2023-05-10T17:21:38.128Z,0.32
2023-05-10T17:24:08.892Z,0.45
2023-05-10T17:26:36.833Z,0.80
2023-05-10T17:29:04.503Z,0.70
2023-05-10T17:31:34.898Z,0.50
2023-05-10T17:34:05.468Z,0.60
2023-05-10T17:36:34.350Z,0.45
2023-05-10T17:39:02.094Z,0.70
2023-05-10T17:41:29.892Z,0.50
2023-05-10T17:43:57.476Z,0.60
2023-05-10T17:46:25.314Z,0.50
2023-05-10T17:48:53.383Z,0.70
2023-05-10T17:51:21.121Z,0.85
2023-05-10T17:53:48.753Z,0.80
2023-05-10T17:56:16.384Z,0.40
2023-05-10T17:58:44.012Z,0.40
2023-05-10T18:01:12.084Z,0.43
2023-05-10T18:03:40.012Z,0.60
2023-05-10T18:06:07.716Z,0.60
2023-05-10T18:08:35.457Z,0.50
2023-05-10T18:11:03.076Z,0.70
2023-05-10T18:13:34.007Z,0.50
2023-05-10T18:16:01.629Z,0.60
2023-05-10T18:18:29.284Z,0.30
2023-05-10T18:20:57.965Z,0.50
2023-05-10T18:23:26.355Z,0.47
2023-05-10T18:25:54.143Z,0.50
2023-05-10T18:28:22.353Z,0.60
2023-05-10T18:30:51.151Z,0.60
2023-05-10T18:33:21.636Z,0.88
2023-05-10T18:35:51.486Z,0.70
2023-05-10T18:38:28.354Z,0.50
2023-05-10T18:40:56.060Z,0.57
2023-05-10T18:43:23.692Z,0.40
2023-05-10T18:45:51.486Z,0.50
2023-05-10T18:48:19.161Z,0.55
2023-05-10T18:50:48.035Z,0.77
2023-05-10T18:53:15.685Z,0.70
2023-05-10T18:55:44.220Z,0.77
2023-05-10T18:58:12.438Z,0.70
2023-05-10T19:00:40.137Z,0.50
2023-05-10T19:03:08.137Z,0.60
2023-05-10T19:05:36.046Z,0.68
2023-05-10T19:08:03.934Z,0.60
2023-05-10T19:10:31.559Z,0.80
2023-05-10T19:12:59.165Z,0.83
2023-05-10T19:15:26.832Z,0.83
2023-05-10T19:17:54.591Z,0.67
2023-05-10T19:20:22.942Z,0.80
2023-05-10T19:23:08.490Z,0.70
2023-05-10T19:25:37.230Z,0.90
2023-05-10T19:28:04.932Z,0.70
2023-05-10T19:30:32.706Z,0.53
2023-05-10T19:33:03.040Z,0.60
2023-05-10T19:35:30.916Z,0.60
2023-05-10T19:37:58.628Z,0.80
2023-05-10T19:40:26.313Z,0.70
2023-05-10T19:42:57.164Z,0.80
2023-05-10T19:45:24.871Z,0.90
2023-05-10T19:47:52.914Z,0.60
2023-05-10T19:50:20.753Z,0.63
2023-05-10T19:52:50.017Z,0.70
2023-05-10T19:55:29.959Z,0.80
2023-05-10T19:58:03.542Z,0.80
2023-05-10T20:00:31.959Z,0.70
2023-05-10T20:03:01.065Z,0.80
2023-05-10T20:05:42.287Z,0.73
2023-05-10T20:08:12.463Z,0.90
2023-05-10T20:10:42.803Z,0.80
2023-05-10T20:13:10.646Z,0.70
2023-05-10T20:15:38.261Z,0.90
2023-05-10T20:18:06.034Z,0.90
2023-05-10T20:20:33.917Z,1.20
2023-05-10T20:23:01.685Z,0.90
2023-05-10T20:25:29.355Z,0.90
2023-05-10T20:27:57.139Z,0.80
2023-05-10T20:30:24.889Z,0.80
2023-05-10T20:32:52.887Z,0.63
2023-05-10T20:35:20.712Z,0.90
2023-05-10T20:37:48.430Z,0.90
2023-05-10T20:40:16.610Z,0.80
2023-05-10T20:42:44.396Z,0.90
2023-05-10T20:45:12.250Z,0.70
2023-05-10T20:47:39.990Z,1.10
2023-05-10T20:50:10.261Z,0.87
2023-05-10T20:52:37.979Z,0.90
2023-05-10T20:55:06.320Z,0.83
2023-05-10T20:57:34.064Z,0.83
2023-05-10T21:00:05.667Z,0.87
2023-05-10T21:02:33.404Z,0.70
2023-05-10T21:05:01.119Z,0.90
2023-05-10T21:07:28.900Z,1.00
2023-05-10T21:09:56.506Z,1.10
2023-05-10T21:12:25.386Z,0.50
2023-05-10T21:14:53.024Z,0.80
2023-05-10T21:17:23.109Z,0.70
2023-05-10T21:19:50.738Z,0.80
2023-05-10T21:26:43.875Z,1.00
2023-05-10T21:29:11.592Z,0.80
2023-05-10T21:31:39.293Z,0.70
2023-05-10T21:34:07.002Z,0.70
2023-05-10T21:36:37.762Z,0.83
2023-05-10T21:39:05.561Z,0.90
2023-05-10T21:41:33.149Z,0.90
2023-05-10T21:44:00.870Z,0.80
2023-05-10T21:46:28.550Z,0.80
2023-05-10T21:48:56.430Z,0.80
2023-05-10T21:51:26.778Z,1.00
2023-05-10T21:53:54.598Z,1.00
2023-05-10T21:56:22.520Z,0.70
2023-05-10T21:58:50.302Z,0.80
2023-05-10T22:01:18.077Z,0.90
2023-05-10T22:03:46.580Z,1.03
2023-05-10T22:06:14.304Z,1.00
2023-05-10T22:08:41.943Z,0.70
2023-05-10T22:11:12.455Z,0.83
2023-05-10T22:13:40.269Z,0.77
2023-05-10T22:16:07.897Z,0.90
2023-05-10T22:18:35.584Z,1.00
2023-05-10T22:21:03.192Z,1.00
2023-05-10T22:23:31.295Z,1.00
2023-05-10T22:26:02.949Z,1.30
2023-05-10T22:28:30.667Z,0.90
2023-05-10T22:30:58.330Z,1.07
2023-05-10T22:33:26.063Z,0.80
2023-05-10T22:35:53.731Z,1.00
2023-05-10T22:38:21.580Z,0.80
2023-05-10T22:40:49.175Z,0.80
2023-05-10T22:43:20.001Z,0.80
2023-05-10T22:45:47.628Z,0.90
2023-05-10T22:48:15.558Z,1.10
2023-05-10T22:50:43.172Z,0.87
2023-05-10T22:53:11.123Z,0.90
2023-05-10T22:55:38.768Z,0.80
2023-05-10T22:58:07.121Z,1.00
2023-05-10T23:00:35.076Z,0.70
2023-05-10T23:03:03.008Z,1.00
2023-05-10T23:05:30.940Z,0.90
2023-05-10T23:07:58.749Z,0.90
2023-05-10T23:10:26.876Z,0.90
2023-05-10T23:12:55.744Z,1.20
2023-05-10T23:15:23.551Z,1.03
2023-05-10T23:17:51.361Z,1.20
2023-05-10T23:20:22.049Z,1.00
2023-05-10T23:22:50.032Z,1.17
2023-05-10T23:25:17.665Z,1.30
2023-05-10T23:27:45.337Z,1.00
2023-05-10T23:30:13.115Z,1.00
2023-05-10T23:32:40.722Z,0.70
2023-05-10T23:35:08.957Z,0.80
2023-05-10T23:37:37.030Z,1.10
2023-05-10T23:40:05.303Z,1.03
2023-05-10T23:42:35.384Z,1.00
2023-05-10T23:45:03.072Z,0.90
2023-05-10T23:47:30.716Z,1.10
2023-05-10T23:49:58.349Z,1.20
2023-05-10T23:52:25.987Z,0.90
2023-05-10T23:54:54.061Z,0.93
2023-05-10T23:57:24.455Z,0.90
2023-05-10T23:59:52.072Z,0.90
